Time;durP1;ratioP1;P1;durP2;ratioP2;P2;SDS_P1;SDS_P2;PMS_P1;PMS_P2;Temp;Humidity;BMP_temperature;BMP_pressure;BME280_temperature;BME280_humidity;BME280_pressure;Samples;Min_cycle;Max_cycle;Signal;HPM_P1;HPM_P2
2022/07/17 00:02:15;;;;;;;1114.70;913.92;;;16.70;99.90;;;;;;5060019;28;20269;-75
2022/07/17 00:04:40;;;;;;;1003.20;810.08;;;16.70;99.90;;;;;;5065996;28;20375;-74
2022/07/17 00:07:06;;;;;;;821.38;649.97;;;16.70;99.90;;;;;;5054242;28;20176;-74
2022/07/17 00:09:32;;;;;;;1703.75;907.60;;;16.70;99.90;;;;;;5089634;28;20185;-74
2022/07/17 00:11:57;;;;;;;1696.25;901.85;;;16.80;99.90;;;;;;5062100;28;20552;-74
2022/07/17 00:14:23;;;;;;;1361.00;781.40;;;16.80;99.90;;;;;;5082586;28;20192;-74
2022/07/17 00:16:49;;;;;;;1999.90;999.90;;;16.90;99.90;;;;;;5056989;28;20188;-74
2022/07/17 00:19:14;;;;;;;1336.63;759.45;;;16.90;99.90;;;;;;5056694;28;20619;-74
2022/07/17 00:21:40;;;;;;;1999.90;999.90;;;16.80;99.90;;;;;;5091779;28;20189;-74
2022/07/17 00:24:06;;;;;;;1999.90;999.90;;;16.70;99.90;;;;;;5051817;28;20234;-74
2022/07/17 00:26:33;;;;;;;1612.18;834.55;;;16.70;99.90;;;;;;5069063;28;20189;-74
2022/07/17 00:28:59;;;;;;;1999.90;999.90;;;16.80;99.90;;;;;;5066377;28;20189;-74
2022/07/17 00:31:25;;;;;;;1999.90;999.90;;;16.80;99.90;;;;;;5074483;28;20196;-74
2022/07/17 00:33:50;;;;;;;1600.47;823.38;;;16.80;99.90;;;;;;5083177;28;20677;-74
2022/07/17 00:36:16;;;;;;;1595.22;822.60;;;16.70;99.90;;;;;;5070849;28;20196;-74
2022/07/17 00:38:42;;;;;;;1999.90;999.90;;;16.70;99.90;;;;;;5052526;28;20180;-74
2022/07/17 00:41:08;;;;;;;1999.90;999.90;;;16.80;99.90;;;;;;5085985;28;20708;-74
2022/07/17 00:43:33;;;;;;;1580.82;806.42;;;16.70;99.90;;;;;;5064418;28;20209;-74
2022/07/17 00:46:01;;;;;;;1999.90;999.90;;;16.80;99.90;;;;;;5093867;28;20204;-74
2022/07/17 00:48:27;;;;;;;1999.90;999.90;;;16.80;99.90;;;;;;5081917;28;20641;-74
2022/07/17 00:50:55;;;;;;;1999.90;999.90;;;16.70;99.90;;;;;;5077110;28;20218;-74
2022/07/17 00:53:21;;;;;;;1999.90;999.90;;;16.60;99.90;;;;;;5089665;28;20243;-74
2022/07/17 00:55:48;;;;;;;1999.90;999.90;;;16.50;99.90;;;;;;5042845;28;20268;-74
2022/07/17 00:58:20;;;;;;;1999.90;999.90;;;16.50;99.90;;;;;;5074809;28;20181;-74
2022/07/17 01:00:48;;;;;;;1999.90;999.90;;;16.50;99.90;;;;;;5077899;28;20630;-74
2022/07/17 01:03:15;;;;;;;1664.82;870.88;;;16.60;99.90;;;;;;5083143;28;20200;-74
2022/07/17 01:05:41;;;;;;;1658.30;869.85;;;16.60;99.90;;;;;;5077383;28;20215;-74
2022/07/17 01:08:07;;;;;;;1348.10;761.45;;;16.60;99.90;;;;;;5063091;28;20190;-74
2022/07/17 01:10:32;;;;;;;1713.25;915.35;;;16.60;99.90;;;;;;5079363;28;20442;-74
2022/07/17 01:12:58;;;;;;;906.97;696.83;;;16.50;99.90;;;;;;5063841;28;20189;-74
2022/07/17 01:15:24;;;;;;;1091.90;698.30;;;16.50;99.90;;;;;;5054613;28;20596;-74
2022/07/17 01:17:50;;;;;;;1761.65;957.50;;;16.30;99.90;;;;;;5067046;28;20704;-75
2022/07/17 01:20:15;;;;;;;1507.53;898.97;;;16.20;99.90;;;;;;5055610;28;20271;-74
2022/07/17 01:22:47;;;;;;;1504.68;895.92;;;16.20;99.90;;;;;;5063115;28;20272;-74
2022/07/17 01:25:14;;;;;;;1999.90;999.90;;;16.20;99.90;;;;;;5079996;28;20626;-74
2022/07/17 01:27:40;;;;;;;890.70;699.53;;;16.20;99.90;;;;;;5071970;28;20578;-75
2022/07/17 01:30:08;;;;;;;942.72;735.30;;;16.30;99.90;;;;;;5083666;28;20180;-74
2022/07/17 01:32:36;;;;;;;857.88;668.53;;;16.20;99.90;;;;;;5080419;28;20234;-74
2022/07/17 01:35:02;;;;;;;876.05;689.45;;;16.20;99.90;;;;;;5086921;28;20638;-74
2022/07/17 01:37:28;;;;;;;809.30;623.85;;;16.20;99.90;;;;;;5055084;28;20560;-75
2022/07/17 01:39:54;;;;;;;924.90;728.92;;;16.30;99.90;;;;;;5091903;28;20189;-74
2022/07/17 01:42:25;;;;;;;1730.35;930.25;;;16.40;99.90;;;;;;5056344;28;20216;-75
2022/07/17 01:44:51;;;;;;;952.33;754.10;;;16.30;99.90;;;;;;5084243;28;20197;-74
2022/07/17 01:47:17;;;;;;;984.60;787.17;;;16.20;99.90;;;;;;5064543;28;20242;-75
2022/07/17 01:49:49;;;;;;;994.33;780.97;;;16.20;99.90;;;;;;5069926;28;20721;-74
2022/07/17 01:52:15;;;;;;;1117.50;896.35;;;16.20;99.90;;;;;;5076502;28;20515;-75
2022/07/17 01:54:41;;;;;;;997.63;791.55;;;16.20;99.90;;;;;;5060950;28;20634;-74
2022/07/17 01:57:08;;;;;;;1094.53;873.25;;;16.20;99.90;;;;;;5089789;28;20233;-74
2022/07/17 01:59:35;;;;;;;1114.15;893.05;;;16.00;99.90;;;;;;5080244;28;20185;-74
2022/07/17 02:02:01;;;;;;;1586.03;969.97;;;16.10;99.90;;;;;;5086873;28;20189;-74
2022/07/17 02:04:27;;;;;;;880.88;685.60;;;16.00;99.90;;;;;;5067811;28;20257;-74
2022/07/17 02:06:55;;;;;;;1999.90;999.90;;;16.00;99.90;;;;;;5059085;28;20184;-74
2022/07/17 02:09:22;;;;;;;1699.05;905.00;;;15.90;99.90;;;;;;5083192;28;20272;-74
2022/07/17 02:11:48;;;;;;;1999.90;999.90;;;15.90;99.90;;;;;;5072481;28;20184;-74
2022/07/17 02:14:13;;;;;;;1999.90;999.90;;;15.90;99.90;;;;;;5079878;28;20182;-75
2022/07/17 02:16:39;;;;;;;1999.90;999.90;;;15.90;99.90;;;;;;5069370;28;20193;-74
2022/07/17 02:19:05;;;;;;;1637.50;854.33;;;15.90;99.90;;;;;;5062525;28;20216;-75
2022/07/17 02:21:30;;;;;;;1999.90;999.90;;;15.90;99.90;;;;;;5087035;28;20189;-74
2022/07/17 02:23:56;;;;;;;1999.90;999.90;;;15.80;99.90;;;;;;5088050;28;20590;-75
2022/07/17 02:26:22;;;;;;;1656.68;868.05;;;15.80;99.90;;;;;;5081840;28;20197;-74
2022/07/17 02:28:47;;;;;;;1630.65;852.50;;;15.80;99.90;;;;;;5056543;28;20183;-74
2022/07/17 02:31:13;;;;;;;1678.70;888.50;;;15.70;99.90;;;;;;5075673;28;20200;-74
2022/07/17 02:33:39;;;;;;;768.45;592.22;;;15.70;99.90;;;;;;5046469;28;20747;-74
2022/07/17 02:36:06;;;;;;;808.17;628.28;;;15.70;99.90;;;;;;5088657;28;20181;-75
2022/07/17 02:38:31;;;;;;;605.40;469.73;;;15.60;99.90;;;;;;5084811;28;20189;-74
2022/07/17 02:40:57;;;;;;;668.60;513.60;;;15.50;99.90;;;;;;5092593;28;20189;-75
2022/07/17 02:43:23;;;;;;;820.80;647.25;;;15.50;99.90;;;;;;5092151;28;20273;-75
2022/07/17 02:45:48;;;;;;;1407.95;820.78;;;15.50;99.90;;;;;;5086203;28;20281;-75
2022/07/17 02:48:14;;;;;;;638.53;498.77;;;15.40;99.90;;;;;;5083146;28;20216;-75
2022/07/17 02:50:40;;;;;;;724.67;573.97;;;15.30;99.90;;;;;;5058252;28;20667;-75
2022/07/17 02:53:05;;;;;;;768.20;611.53;;;15.20;99.90;;;;;;5048298;28;20228;-75
2022/07/17 02:55:31;;;;;;;902.53;719.45;;;15.20;99.90;;;;;;5059646;28;20242;-75
2022/07/17 02:57:57;;;;;;;813.78;649.30;;;15.10;99.90;;;;;;5061779;28;20181;-75
2022/07/17 03:00:22;;;;;;;959.97;762.92;;;15.00;99.90;;;;;;5089575;28;20645;-75
2022/07/17 03:02:48;;;;;;;1006.03;802.65;;;15.10;99.90;;;;;;5076335;28;20216;-75
2022/07/17 03:05:15;;;;;;;508.67;390.02;;;15.00;99.90;;;;;;5087403;28;20225;-75
2022/07/17 03:07:42;;;;;;;1999.90;999.90;;;15.00;99.90;;;;;;5070253;28;20184;-75
2022/07/17 03:10:08;;;;;;;1999.90;999.90;;;15.10;99.90;;;;;;5051370;28;20250;-75
2022/07/17 03:12:34;;;;;;;1999.90;999.90;;;15.10;99.90;;;;;;5073703;28;20646;-75
2022/07/17 03:15:00;;;;;;;1999.90;999.90;;;15.10;99.90;;;;;;5071139;28;20204;-75
2022/07/17 03:17:25;;;;;;;536.08;390.02;;;15.20;99.90;;;;;;5083677;28;20584;-75
2022/07/17 03:19:52;;;;;;;1999.90;999.90;;;15.10;99.90;;;;;;5087496;28;20275;-75
2022/07/17 03:22:17;;;;;;;1999.90;999.90;;;15.00;99.90;;;;;;5074694;28;20219;-74
2022/07/17 03:24:43;;;;;;;1999.90;999.90;;;15.10;99.90;;;;;;5072724;28;20236;-75
2022/07/17 03:27:08;;;;;;;1999.90;999.90;;;15.20;99.90;;;;;;5073226;28;20655;-75
2022/07/17 03:29:34;;;;;;;1999.90;999.90;;;15.10;99.90;;;;;;5063353;28;20181;-75
2022/07/17 03:32:00;;;;;;;1999.90;999.90;;;15.00;99.90;;;;;;5057749;28;20195;-75
2022/07/17 03:34:25;;;;;;;1999.90;999.90;;;14.90;99.90;;;;;;5057075;28;20188;-75
2022/07/17 03:36:51;;;;;;;1999.90;999.90;;;14.80;99.90;;;;;;5088929;28;20584;-75
2022/07/17 03:39:17;;;;;;;1999.90;999.90;;;14.80;99.90;;;;;;5090838;28;20751;-75
2022/07/17 03:41:43;;;;;;;1999.90;999.90;;;14.80;99.90;;;;;;5087481;28;20212;-75
2022/07/17 03:44:09;;;;;;;1999.90;999.90;;;14.80;99.90;;;;;;5057624;28;20243;-74
2022/07/17 03:46:35;;;;;;;1999.90;999.90;;;14.70;99.90;;;;;;5058659;28;20189;-75
2022/07/17 03:49:01;;;;;;;1999.90;999.90;;;14.80;99.90;;;;;;5061603;28;20257;-75
2022/07/17 03:51:26;;;;;;;1999.90;999.90;;;14.80;99.90;;;;;;5073852;28;20313;-75
2022/07/17 03:53:52;;;;;;;1999.90;999.90;;;14.80;99.90;;;;;;5074205;28;20221;-75
2022/07/17 03:56:18;;;;;;;1999.90;999.90;;;14.70;99.90;;;;;;5073103;28;20188;-75
2022/07/17 03:58:44;;;;;;;1999.90;999.90;;;14.80;99.90;;;;;;5068526;28;20190;-75
2022/07/17 04:01:09;;;;;;;1999.90;999.90;;;14.90;99.90;;;;;;5072684;28;20185;-75
2022/07/17 04:03:35;;;;;;;1999.90;999.90;;;14.90;99.90;;;;;;5056370;28;20212;-76
2022/07/17 04:06:01;;;;;;;1999.90;999.90;;;14.90;99.90;;;;;;5057794;28;20649;-76
2022/07/17 04:08:27;;;;;;;1999.90;999.90;;;14.80;99.90;;;;;;5040986;28;20188;-75
2022/07/17 04:10:52;;;;;;;1999.90;999.90;;;14.90;99.90;;;;;;5042722;28;20254;-75
2022/07/17 04:13:18;;;;;;;1999.90;999.90;;;14.90;99.90;;;;;;5072456;28;20180;-75
2022/07/17 04:15:52;;;;;;;1999.90;999.90;;;14.80;99.90;;;;;;5073393;28;20629;-72
2022/07/17 04:18:27;;;;;;;1999.90;999.90;;;14.70;99.90;;;;;;5049683;28;20177;-72
2022/07/17 04:20:55;;;;;;;1999.90;999.90;;;14.50;99.90;;;;;;5087963;28;20223;-73
2022/07/17 04:23:21;;;;;;;1999.90;999.90;;;14.60;99.90;;;;;;5076555;28;20276;-72
2022/07/17 04:25:46;;;;;;;1999.90;999.90;;;14.60;99.90;;;;;;5081048;28;20255;-72
2022/07/17 04:28:12;;;;;;;1999.90;999.90;;;14.60;99.90;;;;;;5077942;28;20671;-72
2022/07/17 04:30:39;;;;;;;1999.90;999.90;;;14.70;99.90;;;;;;5091113;28;20610;-72
2022/07/17 04:33:04;;;;;;;1999.90;999.90;;;14.70;99.90;;;;;;5072088;28;20621;-72
2022/07/17 04:35:31;;;;;;;1999.90;999.90;;;14.70;99.90;;;;;;5090302;28;20185;-72
2022/07/17 04:37:56;;;;;;;1999.90;999.90;;;14.70;99.90;;;;;;5076218;28;20189;-72
2022/07/17 04:40:22;;;;;;;1999.90;999.90;;;14.90;99.90;;;;;;5074468;28;20188;-73
2022/07/17 04:42:48;;;;;;;1999.90;999.90;;;14.90;99.90;;;;;;5080757;28;20548;-72
2022/07/17 04:45:14;;;;;;;1999.90;999.90;;;14.90;99.90;;;;;;5081771;28;20216;-74
2022/07/17 04:47:40;;;;;;;1999.90;999.90;;;14.90;99.90;;;;;;5087732;28;20281;-72
2022/07/17 04:50:09;;;;;;;1999.90;999.90;;;15.00;99.90;;;;;;5091775;28;20234;-69
2022/07/17 04:52:35;;;;;;;1999.90;999.90;;;15.10;99.90;;;;;;5058114;28;20193;-72
2022/07/17 04:55:01;;;;;;;1999.90;999.90;;;15.10;99.90;;;;;;5064077;28;20189;-73
2022/07/17 04:57:27;;;;;;;1999.90;999.90;;;15.20;99.90;;;;;;5089169;28;20335;-71
2022/07/17 04:59:52;;;;;;;1999.90;999.90;;;15.20;99.90;;;;;;5050182;28;20275;-72
2022/07/17 05:02:18;;;;;;;1999.90;999.90;;;15.20;99.90;;;;;;5077262;28;20181;-74
2022/07/17 05:04:44;;;;;;;1999.90;999.90;;;15.20;99.90;;;;;;5075960;28;20221;-71
2022/07/17 05:07:10;;;;;;;1999.90;999.90;;;15.10;99.90;;;;;;5084407;28;20181;-77
2022/07/17 05:09:35;;;;;;;1999.90;999.90;;;15.20;99.90;;;;;;5066737;28;20519;-76
2022/07/17 05:12:01;;;;;;;1999.90;999.90;;;15.30;99.90;;;;;;5075699;28;20204;-72
2022/07/17 05:14:27;;;;;;;1999.90;999.90;;;15.30;99.90;;;;;;5089711;28;20275;-75
2022/07/17 05:16:52;;;;;;;1999.90;999.90;;;15.30;99.90;;;;;;5067454;28;20185;-71
2022/07/17 05:19:18;;;;;;;1999.90;999.90;;;15.20;99.90;;;;;;5069794;28;20193;-71
2022/07/17 05:21:44;;;;;;;1999.90;999.90;;;15.30;99.90;;;;;;5046707;28;20539;-78
2022/07/17 05:24:10;;;;;;;1999.90;999.90;;;15.40;99.90;;;;;;5079888;28;20257;-75
2022/07/17 05:26:36;;;;;;;1999.90;999.90;;;15.40;99.90;;;;;;5076393;28;20196;-75
2022/07/17 05:29:02;;;;;;;1999.90;999.90;;;15.50;99.90;;;;;;5067198;28;20185;-75
2022/07/17 05:31:27;;;;;;;1999.90;999.90;;;15.50;99.90;;;;;;5086165;28;20598;-75
2022/07/17 05:33:53;;;;;;;1999.90;999.90;;;15.70;99.90;;;;;;5071176;28;20226;-75
2022/07/17 05:36:19;;;;;;;1999.90;999.90;;;15.80;99.90;;;;;;5049244;28;20690;-75
2022/07/17 05:38:44;;;;;;;1999.90;999.90;;;15.90;99.90;;;;;;5044100;28;20625;-75
2022/07/17 05:41:10;;;;;;;1999.90;999.90;;;15.90;99.90;;;;;;5075917;28;20265;-75
2022/07/17 05:43:35;;;;;;;1999.90;999.90;;;15.80;99.90;;;;;;5087583;28;20633;-75
2022/07/17 05:46:01;;;;;;;1999.90;999.90;;;16.00;99.90;;;;;;5082306;28;20193;-75
2022/07/17 05:48:30;;;;;;;1999.90;999.90;;;16.20;99.90;;;;;;5084488;28;20189;-75
2022/07/17 05:50:55;;;;;;;1999.90;999.90;;;16.30;99.90;;;;;;5087030;28;20311;-75
2022/07/17 05:53:21;;;;;;;1999.90;999.90;;;16.40;99.90;;;;;;5049057;28;20648;-75
2022/07/17 05:55:47;;;;;;;1999.90;999.90;;;16.60;99.90;;;;;;5062493;28;20192;-75
2022/07/17 05:58:13;;;;;;;1999.90;999.90;;;16.70;99.90;;;;;;5072388;28;20200;-75
2022/07/17 06:00:38;;;;;;;1999.90;999.90;;;16.80;99.90;;;;;;5087538;28;20192;-75
2022/07/17 06:03:05;;;;;;;1999.90;999.90;;;16.70;99.90;;;;;;5077646;28;20189;-75
2022/07/17 06:05:30;;;;;;;1999.90;999.90;;;16.70;99.90;;;;;;5092274;28;20222;-75
2022/07/17 06:07:57;;;;;;;1999.90;999.90;;;16.80;99.90;;;;;;5075076;28;20190;-76
2022/07/17 06:10:24;;;;;;;1999.90;999.90;;;16.80;99.90;;;;;;5051915;28;20183;-75
2022/07/17 06:12:49;;;;;;;1999.90;999.90;;;16.70;99.90;;;;;;5073655;28;20692;-75
2022/07/17 06:15:15;;;;;;;1999.90;999.90;;;16.60;99.90;;;;;;5076668;28;20279;-75
2022/07/17 06:17:41;;;;;;;1999.90;999.90;;;16.70;99.90;;;;;;5077518;28;20177;-75
2022/07/17 06:20:08;;;;;;;1999.90;999.90;;;16.80;99.90;;;;;;5073878;28;20546;-75
2022/07/17 06:22:34;;;;;;;1999.90;999.90;;;17.00;99.90;;;;;;5086376;28;20272;-75
2022/07/17 06:25:00;;;;;;;1999.90;999.90;;;17.20;99.90;;;;;;5078247;28;20292;-75
2022/07/17 06:27:26;;;;;;;1999.90;999.90;;;17.30;99.90;;;;;;5063682;28;20570;-75
2022/07/17 06:29:51;;;;;;;1999.90;999.90;;;17.40;99.90;;;;;;5083472;28;20184;-75
2022/07/17 06:32:17;;;;;;;1999.90;999.90;;;17.40;99.90;;;;;;5064765;28;20184;-75
2022/07/17 06:34:43;;;;;;;1999.90;999.90;;;17.50;99.90;;;;;;5047713;28;20565;-75
2022/07/17 06:37:08;;;;;;;1999.90;999.90;;;17.70;99.90;;;;;;5056353;28;20192;-75
2022/07/17 06:39:34;;;;;;;1999.90;999.90;;;17.70;99.90;;;;;;5075715;28;20193;-75
2022/07/17 06:42:00;;;;;;;1999.90;999.90;;;17.70;99.90;;;;;;5073978;28;20209;-75
2022/07/17 06:44:27;;;;;;;1999.90;999.90;;;17.90;99.90;;;;;;5074156;28;20201;-75
2022/07/17 06:46:52;;;;;;;1999.90;999.90;;;18.00;99.90;;;;;;5082849;28;20300;-75
2022/07/17 06:49:18;;;;;;;1999.90;999.90;;;18.10;99.90;;;;;;5037890;28;20559;-75
2022/07/17 06:51:45;;;;;;;1999.90;999.90;;;18.30;99.90;;;;;;5071419;28;20196;-75
2022/07/17 06:54:12;;;;;;;1999.90;999.90;;;18.30;99.90;;;;;;5055912;28;20238;-75
2022/07/17 06:56:38;;;;;;;1999.90;999.90;;;18.30;99.90;;;;;;5073662;28;20185;-75
2022/07/17 06:59:06;;;;;;;1999.90;999.90;;;18.30;99.90;;;;;;5073801;28;20208;-75
2022/07/17 07:01:33;;;;;;;1999.90;999.90;;;18.50;99.90;;;;;;5055071;28;20241;-75
2022/07/17 07:03:59;;;;;;;1999.90;999.90;;;18.60;99.90;;;;;;5068825;28;20209;-74
2022/07/17 07:06:24;;;;;;;1999.90;999.90;;;18.60;99.90;;;;;;5069631;28;20568;-75
2022/07/17 07:08:50;;;;;;;1999.90;999.90;;;18.60;99.90;;;;;;5093566;28;20188;-76
2022/07/17 07:11:16;;;;;;;1999.90;999.90;;;19.20;99.90;;;;;;5068976;28;20189;-75
2022/07/17 07:13:41;;;;;;;1999.90;999.90;;;20.70;99.90;;;;;;5065201;28;20219;-76
2022/07/17 07:16:07;;;;;;;1999.90;999.90;;;22.50;99.90;;;;;;5053918;28;20584;-76
2022/07/17 07:18:33;;;;;;;1999.90;999.90;;;23.20;99.90;;;;;;5051185;28;20189;-76
2022/07/17 07:20:59;;;;;;;1999.90;999.90;;;25.00;99.90;;;;;;5073492;28;20205;-76
2022/07/17 07:23:24;;;;;;;1999.90;999.90;;;26.50;99.90;;;;;;5052049;28;20237;-76
2022/07/17 07:25:50;;;;;;;1999.90;999.90;;;26.60;99.90;;;;;;5074029;28;20241;-76
2022/07/17 07:28:16;;;;;;;875.78;731.03;;;27.30;99.90;;;;;;5063418;28;20511;-76
2022/07/17 07:30:42;;;;;;;1098.50;957.45;;;28.50;99.90;;;;;;5073317;28;20208;-76
2022/07/17 07:33:07;;;;;;;1226.45;999.90;;;29.20;99.90;;;;;;5042672;28;20212;-76
2022/07/17 07:35:33;;;;;;;1242.80;999.90;;;29.10;99.90;;;;;;5067284;28;20183;-77
2022/07/17 07:37:59;;;;;;;1256.18;999.90;;;29.90;99.90;;;;;;5075035;28;20629;-77
2022/07/17 07:40:24;;;;;;;1289.50;999.90;;;30.70;99.90;;;;;;5069668;28;20384;-77
2022/07/17 07:42:50;;;;;;;1328.43;999.90;;;31.10;99.90;;;;;;5089816;28;20527;-77
2022/07/17 07:45:16;;;;;;;1336.57;999.90;;;31.60;99.90;;;;;;5067517;28;20660;-77
2022/07/17 07:47:44;;;;;;;1329.45;999.90;;;32.00;99.90;;;;;;5072669;28;20351;-77
2022/07/17 07:50:11;;;;;;;1323.68;999.90;;;32.00;99.90;;;;;;5072218;28;20212;-77
2022/07/17 07:52:38;;;;;;;1317.03;999.90;;;31.90;99.90;;;;;;5086230;28;20575;-77
2022/07/17 07:55:04;;;;;;;1301.95;999.90;;;31.50;99.90;;;;;;5077972;28;20779;-77
2022/07/17 07:57:30;;;;;;;1298.40;999.90;;;31.50;99.90;;;;;;5087192;28;20186;-76
2022/07/17 07:59:56;;;;;;;1304.07;999.90;;;30.90;99.90;;;;;;5091213;28;20188;-77
2022/07/17 08:02:21;;;;;;;1305.38;999.90;;;31.10;99.90;;;;;;5071850;28;20203;-77
2022/07/17 08:04:47;;;;;;;1295.30;999.90;;;32.00;99.90;;;;;;5074769;28;20302;-76
2022/07/17 08:07:13;;;;;;;1294.68;999.90;;;32.20;99.90;;;;;;5054538;28;20623;-76
2022/07/17 08:09:38;;;;;;;1287.13;999.90;;;32.30;99.90;;;;;;5057764;28;20267;-76
2022/07/17 08:12:04;;;;;;;1290.80;999.90;;;32.30;99.90;;;;;;5043370;28;20189;-76
2022/07/17 08:14:30;;;;;;;1283.57;999.90;;;32.20;99.90;;;;;;5070612;28;20184;-76
2022/07/17 08:16:56;;;;;;;1281.72;999.90;;;31.90;99.90;;;;;;5056439;28;20176;-76
2022/07/17 08:19:21;;;;;;;1284.88;999.90;;;31.70;99.90;;;;;;5082609;28;20188;-75
2022/07/17 08:21:47;;;;;;;1274.53;999.90;;;30.90;99.90;;;;;;5073025;28;20188;-75
2022/07/17 08:24:12;;;;;;;1281.68;999.90;;;31.30;99.90;;;;;;5039862;28;20699;-75
2022/07/17 08:26:38;;;;;;;1280.32;999.90;;;31.90;99.90;;;;;;5072608;28;20192;-75
2022/07/17 08:29:04;;;;;;;1277.85;999.90;;;31.80;99.90;;;;;;5075025;28;20199;-76
2022/07/17 08:31:30;;;;;;;1275.32;999.90;;;32.10;99.90;;;;;;5063316;28;20191;-76
2022/07/17 08:33:55;;;;;;;1271.30;999.90;;;31.90;99.90;;;;;;5073219;28;20192;-75
2022/07/17 08:36:21;;;;;;;1271.13;999.90;;;32.40;99.90;;;;;;5064431;28;20563;-75
2022/07/17 08:38:48;;;;;;;1268.78;999.90;;;31.80;99.90;;;;;;5056052;28;20643;-75
2022/07/17 08:41:21;;;;;;;1267.88;999.90;;;31.30;99.90;;;;;;5071089;28;20199;-75
2022/07/17 08:43:48;;;;;;;1266.43;999.90;;;32.10;99.90;;;;;;5087901;28;20207;-75
2022/07/17 08:46:16;;;;;;;1256.70;999.90;;;32.00;99.80;;;;;;5073333;28;20223;-74
2022/07/17 08:48:44;;;;;;;1262.05;999.90;;;30.70;99.90;;;;;;5081920;28;20185;-75
2022/07/17 08:51:11;;;;;;;1262.68;999.90;;;31.20;99.90;;;;;;5087327;28;20184;-74
2022/07/17 08:53:37;;;;;;;1252.03;999.90;;;31.40;99.90;;;;;;5089950;28;20672;-75
2022/07/17 08:56:03;;;;;;;1253.03;999.90;;;30.40;99.90;;;;;;5079930;28;20273;-75
2022/07/17 08:58:29;;;;;;;1247.93;999.90;;;30.40;99.90;;;;;;5083413;28;20267;-75
2022/07/17 09:00:55;;;;;;;1257.97;999.90;;;30.50;99.90;;;;;;5087888;28;20709;-75
2022/07/17 09:03:23;;;;;;;1262.10;999.90;;;30.80;99.90;;;;;;5086298;28;20204;-75
2022/07/17 09:05:49;;;;;;;1257.38;999.90;;;31.50;99.90;;;;;;5073423;28;20217;-75
2022/07/17 09:08:23;;;;;;;1259.28;999.90;;;32.50;99.90;;;;;;5075995;28;20608;-75
2022/07/17 09:10:52;;;;;;;1257.70;999.90;;;33.00;99.70;;;;;;5089186;28;20253;-74
2022/07/17 09:13:24;;;;;;;1249.72;999.90;;;32.80;98.90;;;;;;5082609;28;20185;-75
2022/07/17 09:15:52;;;;;;;1252.53;999.90;;;32.40;98.90;;;;;;5070574;28;20659;-75
2022/07/17 09:18:19;;;;;;;1255.75;999.90;;;32.10;99.00;;;;;;5076332;28;20188;-74
2022/07/17 09:20:50;;;;;;;1246.15;999.90;;;32.20;99.10;;;;;;5079934;28;20183;-74
2022/07/17 09:23:18;;;;;;;1251.20;999.90;;;30.60;99.90;;;;;;5076845;28;20582;-74
2022/07/17 09:25:47;;;;;;;1248.35;999.90;;;31.40;99.90;;;;;;5059883;28;20672;-73
2022/07/17 09:28:14;;;;;;;1247.18;999.90;;;31.40;99.40;;;;;;5095994;28;20194;-73
2022/07/17 09:30:43;;;;;;;1244.15;999.90;;;29.70;99.90;;;;;;5059434;28;20173;-74
2022/07/17 09:33:15;;;;;;;1240.97;999.90;;;30.30;99.90;;;;;;5084823;28;20234;-74
2022/07/17 09:35:47;;;;;;;1244.22;999.90;;;30.10;99.90;;;;;;5078593;28;20195;-74
2022/07/17 09:38:25;;;;;;;1243.47;999.90;;;29.40;99.90;;;;;;5075073;28;20223;-74
2022/07/17 09:41:20;;;;;;;1242.85;999.90;;;28.10;99.90;;;;;;5065234;28;20215;-73
2022/07/17 09:43:59;;;;;;;1253.65;999.90;;;27.20;99.90;;;;;;5059738;28;20569;-73
2022/07/17 09:46:33;;;;;;;1255.70;999.90;;;27.00;99.90;;;;;;5068776;28;20196;-73
2022/07/17 09:49:01;;;;;;;1260.15;999.90;;;26.50;99.90;;;;;;5076154;28;20198;-73
2022/07/17 09:51:29;;;;;;;1265.88;999.90;;;26.00;99.90;;;;;;5093681;28;20203;-73
2022/07/17 09:54:01;;;;;;;1276.47;999.90;;;25.40;99.90;;;;;;5084850;28;20188;-73
2022/07/17 09:56:31;;;;;;;1287.53;999.90;;;25.40;99.90;;;;;;5074647;28;20723;-74
2022/07/17 09:59:11;;;;;;;1297.45;999.90;;;25.70;99.90;;;;;;5089919;28;20177;-73
2022/07/17 10:01:39;;;;;;;1306.65;999.90;;;25.40;99.90;;;;;;5092559;28;20206;-73
2022/07/17 10:04:05;;;;;;;1297.65;999.90;;;25.20;99.90;;;;;;5079858;28;20204;-73
2022/07/17 10:06:31;;;;;;;1311.75;999.90;;;25.20;99.90;;;;;;5076455;28;20200;-72
2022/07/17 10:08:57;;;;;;;1321.90;999.90;;;25.40;99.90;;;;;;5074650;28;20197;-73
2022/07/17 10:11:29;;;;;;;1319.68;999.90;;;25.50;99.90;;;;;;5071319;28;20189;-74
2022/07/17 10:14:00;;;;;;;1323.47;999.90;;;25.70;99.90;;;;;;5073867;28;20188;-75
2022/07/17 10:16:29;;;;;;;1327.35;999.90;;;25.90;99.90;;;;;;5082394;28;20225;-74
2022/07/17 10:18:57;;;;;;;1327.28;999.90;;;26.00;99.90;;;;;;5065217;28;20180;-74
2022/07/17 10:21:24;;;;;;;1328.05;999.90;;;25.50;99.90;;;;;;5055824;28;20185;-73
2022/07/17 10:23:52;;;;;;;1324.68;999.90;;;25.10;99.90;;;;;;5080857;28;20287;-73
2022/07/17 10:26:34;;;;;;;1331.03;999.90;;;24.60;99.90;;;;;;5077379;28;20196;-73
2022/07/17 10:29:00;;;;;;;1337.13;999.90;;;24.70;99.90;;;;;;5073730;28;20177;-73
2022/07/17 10:31:28;;;;;;;1342.45;999.90;;;25.10;99.90;;;;;;5066140;28;20275;-73
2022/07/17 10:33:57;;;;;;;1343.35;999.90;;;25.20;99.90;;;;;;5070659;28;20251;-72
2022/07/17 10:36:37;;;;;;;1344.60;999.90;;;25.20;99.90;;;;;;5086440;28;20180;-73
2022/07/17 10:39:14;;;;;;;1338.25;999.90;;;25.10;99.90;;;;;;5068079;28;20193;-73
2022/07/17 10:41:40;;;;;;;1345.78;999.90;;;25.10;99.90;;;;;;5069878;28;20195;-73
2022/07/17 10:44:06;;;;;;;1348.55;999.90;;;25.10;99.90;;;;;;5074032;28;20212;-73
2022/07/17 10:46:31;;;;;;;1349.97;999.90;;;24.90;99.90;;;;;;5055971;28;20607;-73
2022/07/17 10:48:57;;;;;;;1348.32;999.90;;;25.00;99.90;;;;;;5071307;28;20254;-73
2022/07/17 10:51:29;;;;;;;1346.18;999.90;;;25.30;99.90;;;;;;5064052;28;20190;-74
2022/07/17 10:53:58;;;;;;;1347.10;999.90;;;25.20;99.90;;;;;;5065486;28;20553;-75
2022/07/17 10:56:25;;;;;;;1341.88;999.90;;;25.20;99.90;;;;;;5061302;28;20189;-74
2022/07/17 10:58:52;;;;;;;1343.47;999.90;;;25.40;99.90;;;;;;5086170;28;20186;-74
2022/07/17 11:01:21;;;;;;;1339.40;999.90;;;25.50;99.90;;;;;;5055579;28;20696;-75
2022/07/17 11:03:58;;;;;;;1344.07;999.90;;;25.70;99.90;;;;;;5073212;28;20549;-74
2022/07/17 11:06:32;;;;;;;1342.90;999.90;;;25.80;99.90;;;;;;5074639;28;20295;-74
2022/07/17 11:09:02;;;;;;;1340.97;999.90;;;25.70;99.90;;;;;;5078151;28;20254;-73
2022/07/17 11:11:39;;;;;;;1337.20;999.90;;;25.50;99.90;;;;;;5075332;28;20213;-73
2022/07/17 11:14:13;;;;;;;1347.30;999.90;;;25.30;99.90;;;;;;5072278;28;20583;-73
2022/07/17 11:16:58;;;;;;;1350.13;999.90;;;25.50;99.90;;;;;;5077454;28;20199;-73
2022/07/17 11:19:28;;;;;;;1352.28;999.90;;;25.50;99.90;;;;;;5073186;28;20193;-73
2022/07/17 11:21:55;;;;;;;1352.38;999.90;;;25.50;99.90;;;;;;5069482;28;20192;-73
2022/07/17 11:24:21;;;;;;;1344.75;999.90;;;25.40;99.90;;;;;;5068733;28;20284;-73
2022/07/17 11:26:50;;;;;;;1347.00;999.90;;;25.40;99.90;;;;;;5092291;28;20189;-74
2022/07/17 11:29:16;;;;;;;1345.22;999.90;;;25.30;99.90;;;;;;5074605;28;20215;-73
2022/07/17 11:31:43;;;;;;;1345.30;999.90;;;25.20;99.90;;;;;;5088725;28;20698;-73
2022/07/17 11:34:11;;;;;;;1345.35;999.90;;;25.20;99.90;;;;;;5056239;28;20217;-73
2022/07/17 11:36:41;;;;;;;1334.97;999.90;;;25.30;99.90;;;;;;5043428;28;20591;-73
2022/07/17 11:39:18;;;;;;;1349.97;999.90;;;25.60;99.90;;;;;;5087559;28;20193;-73
2022/07/17 11:41:52;;;;;;;1340.53;999.90;;;25.70;99.90;;;;;;5059209;28;20490;-74
2022/07/17 11:44:24;;;;;;;1334.78;999.90;;;25.50;99.90;;;;;;5082288;28;20257;-72
2022/07/17 11:46:51;;;;;;;1332.75;999.90;;;25.10;99.90;;;;;;5086314;28;20180;-73
2022/07/17 11:49:34;;;;;;;1335.03;999.90;;;25.10;99.90;;;;;;5076906;28;20239;-73
2022/07/17 11:52:21;;;;;;;1330.95;999.90;;;25.30;99.90;;;;;;5073262;28;20227;-73
2022/07/17 11:54:52;;;;;;;1333.18;999.90;;;25.50;99.90;;;;;;5062885;28;20197;-73
2022/07/17 11:57:18;;;;;;;1333.50;999.90;;;25.50;99.90;;;;;;5062241;28;20250;-73
2022/07/17 11:59:45;;;;;;;1338.90;999.90;;;25.60;99.90;;;;;;5073818;28;20264;-73
2022/07/17 12:02:13;;;;;;;1340.40;999.90;;;25.80;99.90;;;;;;5082988;28;20189;-72